Anderson, California
Current Conditions -  °F | °C
As of 9:53 PM on Monday 20 Oct 2014 (Local Time) from KRDD Reporting Station
Clear Clear  
Wind Chill: 12°   Ceiling: Unl
Heat Index: 12°   Visibility: 10mi
Dew Point: 11°   Wind: 3mph
Humidity: 90%   Direction: 20°NNE
Pressure: 29.96"   Gusts: NA
Location:  40.45°N, 122.3°W
Report Text: KRDD 210453Z AUTO 02003KT 10SM CLR 12/11 A2996 RMK AO2 SLP144 T01220106
Loading
Personal Weather Stations






























Interactive Weather Map
Tropical Storm Tracking
New forecast layout! Learn more

10-Day Weather Forecast

Advertisements
Track Severe Weather on mobile